Terminal Aerodrome Forecast
Issued by NWS Sioux Falls, SD

Home | Current Version | Previous Version | Text Only | Print | Product List | Glossary On
Versions: 1 2 3 4 5 6 7 8 9 10 11 12 13 14 15 16 17 18 19 20 21 22 23 24 25 26 27 28 29 30 31 32 33 34 35 36 37 38
000
FTUS43 KFSD 191742
TAFSUX
TAF
KSUX 191742Z 1918/2018 15010KT 1SM BR OVC003
      TEMPO 1918/1920 1/2SM FG
     FM192000 15008KT 2SM BR OVC005
     FM192300 14007KT 5SM BR OVC005
     FM200300 13007KT 2SM -DZ BR OVC003
     FM200800 13007KT 3/4SM -DZ BR OVC003
      TEMPO 2012/2016 1/2SM FG=

USA.gov is the U.S. government's official web portal to all federal, state and local government web resources and services.